Archival Weather

Dane County Rgnl/Truax Fld

Madison, Wisconsin (KMSN)

Report from: Sunday, April 21, 2024 6:53 AM CDT
Current time: Tuesday, May 21, 2024 10:50 AM CDT

Current weather – Weather history – Daily summaries
Weather forecast

Temperature0.0°C (32.0°F)
Wind chill-1.8°C (28.7°F)
Dew point-4.4°C (24.1°F)
Winds 3 kts (1.5 m/s, 3.5 mph) West (280°)
Visibility10 mi. (16.1 km)
Clouds Sky clear
Altimeter30.15 in.Hg (1021 mB)
Relative humidity72 %
Density altitude-2,058 ft. (-627 m)
Sea-level pressure102.2 kPa (1022 mB, 30.18 in.Hg)
Max temp last 6 hours0.0°C (32.0°F)
Min temp last 6 hours-2.2°C (28.0°F)
Remarks System requires maintenance
Automated weather observing station with precipitation discriminator
Pressure falling, then rising
Flight conditions Visual Meteorological Conditions
Raw dataKMSN 211153Z 28003KT 10SM CLR 00/M04 A3015 RMK AO2 SLP219 T00001044 10000 21022 55000 $
An error has occurred. This application may no longer respond until reloaded. Reload 🗙